createdAt,value
2023-03-31T00:00:03.805Z,0.00
2023-03-31T00:01:24.645Z,0.00
2023-03-31T00:02:03.615Z,0.00
2023-03-31T00:03:24.782Z,0.00
2023-03-31T00:04:03.792Z,0.00
2023-03-31T00:05:03.640Z,0.00
2023-03-31T00:06:24.510Z,0.00
2023-03-31T00:07:03.445Z,0.00
2023-03-31T00:08:24.408Z,0.00
2023-03-31T00:09:03.367Z,0.00
2023-03-31T00:10:16.547Z,0.00
2023-03-31T00:11:24.316Z,0.00
2023-03-31T00:12:03.300Z,0.00
2023-03-31T00:13:24.240Z,0.00
2023-03-31T00:14:03.214Z,0.00
2023-03-31T00:15:03.186Z,0.00
2023-03-31T00:16:24.138Z,0.00
2023-03-31T00:17:03.182Z,0.00
2023-03-31T00:18:24.058Z,0.00
2023-03-31T00:19:03.028Z,0.00
2023-03-31T00:20:02.977Z,0.00
2023-03-31T00:21:23.940Z,0.00
2023-03-31T00:22:02.925Z,0.00
2023-03-31T00:23:23.894Z,0.00
2023-03-31T00:24:02.850Z,0.00
2023-03-31T00:25:02.850Z,0.00
2023-03-31T00:26:23.773Z,0.00
2023-03-31T00:27:02.743Z,0.00
2023-03-31T00:28:23.693Z,0.00
2023-03-31T00:29:02.652Z,0.00
2023-03-31T00:30:02.627Z,0.00
2023-03-31T00:31:23.660Z,0.00
2023-03-31T00:32:02.608Z,0.00
2023-03-31T00:33:23.527Z,0.00
2023-03-31T00:34:02.511Z,0.00
2023-03-31T00:35:02.504Z,0.00
2023-03-31T00:36:23.448Z,0.00
2023-03-31T00:37:02.405Z,0.00
2023-03-31T00:38:23.331Z,0.00
2023-03-31T00:39:02.321Z,0.00
2023-03-31T00:40:02.299Z,0.00
2023-03-31T00:41:23.224Z,0.00
2023-03-31T00:42:02.200Z,0.00
2023-03-31T00:43:23.177Z,0.00
2023-03-31T00:44:02.205Z,0.00
2023-03-31T00:45:02.116Z,0.00
2023-03-31T00:46:23.142Z,0.00
2023-03-31T00:47:02.047Z,0.00
2023-03-31T00:48:23.027Z,0.00
2023-03-31T00:49:01.984Z,0.00
2023-03-31T00:50:01.935Z,0.00
2023-03-31T00:51:22.888Z,0.00
2023-03-31T00:52:01.839Z,0.00
2023-03-31T00:53:22.818Z,0.00
2023-03-31T00:54:01.773Z,0.00
2023-03-31T00:55:01.769Z,0.00
2023-03-31T00:56:22.714Z,0.00
2023-03-31T00:57:01.705Z,0.00
2023-03-31T00:58:22.664Z,0.00
2023-03-31T00:59:01.611Z,0.00
2023-03-31T01:00:01.594Z,0.00
2023-03-31T01:01:22.573Z,0.00
2023-03-31T01:02:01.504Z,0.00
2023-03-31T01:03:22.529Z,0.00
2023-03-31T01:04:01.526Z,0.00
2023-03-31T01:05:01.402Z,0.00
2023-03-31T01:06:22.342Z,0.00
2023-03-31T01:07:01.331Z,0.00
2023-03-31T01:08:22.280Z,0.00
2023-03-31T01:09:01.268Z,0.00
2023-03-31T01:10:01.229Z,0.00
2023-03-31T01:11:22.185Z,0.00
2023-03-31T01:12:01.150Z,0.00
2023-03-31T01:13:22.115Z,0.00
2023-03-31T01:14:01.155Z,0.00
2023-03-31T01:15:01.045Z,0.00
2023-03-31T01:16:22.028Z,0.00
2023-03-31T01:17:01.024Z,0.00
2023-03-31T01:18:22.130Z,0.00
2023-03-31T01:19:00.903Z,0.00
2023-03-31T01:20:00.856Z,0.00
2023-03-31T01:21:21.835Z,0.00
2023-03-31T01:22:00.784Z,0.00
2023-03-31T01:23:21.806Z,0.00
2023-03-31T01:24:00.719Z,0.00
2023-03-31T01:25:00.694Z,0.00
2023-03-31T01:26:21.654Z,0.00
2023-03-31T01:27:00.621Z,0.00
2023-03-31T01:28:21.564Z,0.00
2023-03-31T01:29:00.554Z,0.00
2023-03-31T01:30:00.510Z,0.00
2023-03-31T01:31:21.523Z,0.00
2023-03-31T01:32:00.440Z,0.00
2023-03-31T01:33:21.390Z,0.00
2023-03-31T01:34:00.369Z,0.00
2023-03-31T01:35:00.345Z,0.00
2023-03-31T01:36:21.314Z,0.00
2023-03-31T01:37:00.247Z,0.00
2023-03-31T01:38:21.227Z,0.00
2023-03-31T01:39:00.211Z,0.00
2023-03-31T01:40:00.167Z,0.00
2023-03-31T01:41:21.128Z,0.00
2023-03-31T01:42:00.098Z,0.00
2023-03-31T01:43:21.078Z,0.00
2023-03-31T01:44:00.039Z,0.00
2023-03-31T01:45:00.004Z,0.00
2023-03-31T01:46:20.987Z,0.00
2023-03-31T01:46:59.917Z,0.00
2023-03-31T01:48:20.868Z,0.00
2023-03-31T01:48:59.847Z,0.00
2023-03-31T01:49:59.831Z,0.00
2023-03-31T01:51:20.777Z,0.00
2023-03-31T01:51:59.777Z,0.00
2023-03-31T01:53:20.707Z,0.00
2023-03-31T01:53:59.656Z,0.00
2023-03-31T01:54:59.616Z,0.00
2023-03-31T01:56:20.584Z,0.00
2023-03-31T01:56:59.624Z,0.00
2023-03-31T01:58:20.541Z,0.00
2023-03-31T01:58:59.504Z,0.00
2023-03-31T01:59:59.468Z,0.00
2023-03-31T02:01:20.458Z,0.00
2023-03-31T02:01:59.463Z,0.00
2023-03-31T02:03:20.480Z,0.00
2023-03-31T02:03:59.329Z,0.00
2023-03-31T02:04:59.340Z,0.00
2023-03-31T02:06:20.251Z,0.00
2023-03-31T02:06:59.245Z,0.00
2023-03-31T02:08:20.157Z,0.00
2023-03-31T02:08:59.150Z,0.00
2023-03-31T02:09:59.123Z,0.00
2023-03-31T02:11:20.058Z,0.00
2023-03-31T02:11:59.026Z,0.00
2023-03-31T02:13:20.008Z,0.00
2023-03-31T02:13:58.975Z,0.00
2023-03-31T02:14:58.914Z,0.00
2023-03-31T02:16:19.914Z,0.00
2023-03-31T02:16:58.872Z,0.00
2023-03-31T02:18:19.825Z,0.00
2023-03-31T02:18:58.794Z,0.00
2023-03-31T02:19:58.742Z,0.00
2023-03-31T02:21:19.764Z,0.00
2023-03-31T02:21:58.671Z,0.00
2023-03-31T02:23:19.649Z,0.00
2023-03-31T02:23:58.594Z,0.00
2023-03-31T02:24:58.575Z,0.00
2023-03-31T02:26:19.521Z,0.00
2023-03-31T02:26:58.507Z,0.00
2023-03-31T02:28:19.475Z,0.00
2023-03-31T02:28:58.427Z,0.00
2023-03-31T02:29:58.415Z,0.00
2023-03-31T02:31:19.368Z,0.00
2023-03-31T02:31:58.439Z,0.00
2023-03-31T02:33:19.379Z,0.00
2023-03-31T02:33:58.261Z,0.00
2023-03-31T02:34:58.215Z,0.00
2023-03-31T02:36:19.431Z,0.00
2023-03-31T02:36:58.163Z,0.00
2023-03-31T02:38:19.124Z,0.00
2023-03-31T02:38:58.062Z,0.00
2023-03-31T02:39:58.044Z,0.00
2023-03-31T02:41:18.995Z,0.00
2023-03-31T02:41:57.981Z,0.00
2023-03-31T02:43:18.940Z,0.00
2023-03-31T02:43:57.902Z,0.00
2023-03-31T02:44:57.860Z,0.00
2023-03-31T02:46:18.840Z,0.00
2023-03-31T02:46:57.777Z,0.00
2023-03-31T02:48:18.762Z,0.00
2023-03-31T02:48:57.712Z,0.00
2023-03-31T02:49:57.695Z,0.00
2023-03-31T02:51:18.639Z,0.00
2023-03-31T02:51:57.626Z,0.00
2023-03-31T02:53:18.601Z,0.00
2023-03-31T02:53:57.551Z,0.00
2023-03-31T02:54:57.500Z,0.00
2023-03-31T02:56:18.478Z,0.00
2023-03-31T02:56:57.449Z,0.00
2023-03-31T02:58:18.461Z,0.00
2023-03-31T02:58:57.354Z,0.00
2023-03-31T02:59:57.342Z,0.00
2023-03-31T03:01:18.330Z,0.00
2023-03-31T03:01:57.292Z,0.00
2023-03-31T03:03:18.275Z,0.00
2023-03-31T03:03:57.205Z,0.00
2023-03-31T03:04:57.143Z,0.00
2023-03-31T03:06:18.130Z,0.00
2023-03-31T03:06:57.082Z,0.00
2023-03-31T03:08:18.041Z,0.00
2023-03-31T03:08:57.014Z,0.00
2023-03-31T03:09:57.012Z,0.00
2023-03-31T03:11:17.997Z,0.00
2023-03-31T03:11:56.926Z,0.00
2023-03-31T03:13:17.896Z,0.00
2023-03-31T03:13:56.829Z,0.00
2023-03-31T03:14:56.826Z,0.00
2023-03-31T03:16:17.797Z,0.00
2023-03-31T03:16:56.828Z,0.00
2023-03-31T03:18:17.685Z,0.00
2023-03-31T03:18:56.670Z,0.00
2023-03-31T03:19:56.655Z,0.00
2023-03-31T03:21:17.625Z,0.00
2023-03-31T03:21:56.578Z,0.00
2023-03-31T03:23:17.526Z,0.00
2023-03-31T03:23:56.498Z,0.00
2023-03-31T03:24:56.444Z,0.00
2023-03-31T03:26:17.410Z,0.00
2023-03-31T03:26:56.377Z,0.00
2023-03-31T03:28:17.358Z,0.00
2023-03-31T03:28:56.340Z,0.00
2023-03-31T03:29:56.304Z,0.00
2023-03-31T03:31:17.296Z,0.00
2023-03-31T03:31:56.223Z,0.00
2023-03-31T03:33:17.429Z,0.00
2023-03-31T03:33:56.136Z,0.00
2023-03-31T03:34:56.102Z,0.00
2023-03-31T03:36:17.114Z,0.00
2023-03-31T03:36:56.029Z,0.00
2023-03-31T03:38:16.992Z,0.00
2023-03-31T03:38:55.973Z,0.00
2023-03-31T03:39:55.936Z,0.00
2023-03-31T03:41:16.905Z,0.00
2023-03-31T03:41:55.870Z,0.00
2023-03-31T03:43:16.838Z,0.00
2023-03-31T03:43:55.814Z,0.00
2023-03-31T03:44:55.758Z,0.00
2023-03-31T03:46:16.791Z,0.00
2023-03-31T03:46:55.691Z,0.00
2023-03-31T03:48:16.665Z,0.00
2023-03-31T03:48:55.628Z,0.00
2023-03-31T03:49:55.579Z,0.00
2023-03-31T03:51:16.549Z,0.00
2023-03-31T03:51:55.500Z,0.00
2023-03-31T03:53:16.515Z,0.00
2023-03-31T03:53:55.436Z,0.00
2023-03-31T03:54:55.397Z,0.00
2023-03-31T03:56:16.649Z,0.00
2023-03-31T03:56:55.398Z,0.00
2023-03-31T03:58:16.292Z,0.00
2023-03-31T03:58:55.249Z,0.00
2023-03-31T03:59:55.231Z,0.00
2023-03-31T04:01:16.190Z,0.00
2023-03-31T04:01:55.221Z,0.00
2023-03-31T04:03:16.132Z,0.00
2023-03-31T04:03:55.096Z,0.00
2023-03-31T04:04:55.091Z,0.00
2023-03-31T04:06:16.024Z,0.00
2023-03-31T04:06:54.966Z,0.00
2023-03-31T04:08:15.940Z,0.00
2023-03-31T04:08:54.935Z,0.00
2023-03-31T04:09:54.903Z,0.00
2023-03-31T04:11:18.090Z,0.00
2023-03-31T04:11:54.787Z,0.00
2023-03-31T04:13:15.753Z,0.00
2023-03-31T04:13:54.736Z,0.00
2023-03-31T04:14:54.704Z,0.00
2023-03-31T04:16:15.732Z,0.00
2023-03-31T04:16:54.619Z,0.00
2023-03-31T04:18:15.595Z,0.00
2023-03-31T04:18:54.561Z,0.00
2023-03-31T04:19:54.529Z,0.00
2023-03-31T04:21:15.509Z,0.00
2023-03-31T04:21:54.458Z,0.00
2023-03-31T04:23:15.416Z,0.00
2023-03-31T04:23:54.413Z,0.00
2023-03-31T04:24:54.356Z,0.00
2023-03-31T04:26:15.315Z,0.00
2023-03-31T04:26:54.264Z,0.00
2023-03-31T04:28:15.242Z,0.00
2023-03-31T04:28:54.193Z,0.00
2023-03-31T04:29:54.183Z,0.00
2023-03-31T04:31:15.181Z,0.00
2023-03-31T04:31:54.177Z,0.00
2023-03-31T04:33:15.039Z,0.00
2023-03-31T04:33:54.037Z,0.00
2023-03-31T04:34:53.995Z,0.00
2023-03-31T04:36:15.033Z,0.00
2023-03-31T04:36:53.904Z,0.00
2023-03-31T04:38:14.890Z,0.00
2023-03-31T04:38:53.853Z,0.00
2023-03-31T04:39:53.804Z,0.00
2023-03-31T04:41:14.804Z,0.00
2023-03-31T04:41:53.759Z,0.00
2023-03-31T04:43:14.692Z,0.00
2023-03-31T04:43:53.675Z,0.00
2023-03-31T04:44:53.641Z,0.00
2023-03-31T04:46:14.625Z,0.00
2023-03-31T04:46:53.551Z,0.00
2023-03-31T04:48:14.535Z,0.00
2023-03-31T04:48:53.477Z,0.00
2023-03-31T04:49:53.502Z,0.00
2023-03-31T04:51:14.409Z,0.00
2023-03-31T04:51:53.394Z,0.00
2023-03-31T04:53:14.331Z,0.00
2023-03-31T04:53:53.328Z,0.00
2023-03-31T04:54:53.263Z,0.00
2023-03-31T04:56:14.248Z,0.00
2023-03-31T04:56:53.246Z,0.00
2023-03-31T04:58:14.169Z,0.00
2023-03-31T04:58:53.122Z,0.00
2023-03-31T04:59:53.104Z,0.00
2023-03-31T05:01:14.098Z,0.00
2023-03-31T05:01:53.050Z,4.00
2023-03-31T05:03:14.103Z,4.00
2023-03-31T05:03:52.983Z,4.00
2023-03-31T05:04:52.943Z,0.00
2023-03-31T05:06:13.895Z,0.00
2023-03-31T05:06:52.849Z,4.00
2023-03-31T05:08:13.824Z,4.00
2023-03-31T05:08:52.788Z,4.00
2023-03-31T05:09:52.767Z,4.00
2023-03-31T05:11:13.712Z,4.00
2023-03-31T05:11:52.688Z,4.00
2023-03-31T05:13:13.630Z,8.00
2023-03-31T05:13:52.617Z,8.00
2023-03-31T05:14:52.591Z,8.00
2023-03-31T05:16:13.573Z,8.00
2023-03-31T05:16:52.573Z,8.00
2023-03-31T05:18:13.510Z,8.00
2023-03-31T05:18:52.420Z,12.00
2023-03-31T05:19:52.402Z,12.00
2023-03-31T05:21:13.348Z,8.00
2023-03-31T05:21:52.332Z,12.00
2023-03-31T05:23:13.282Z,12.00
2023-03-31T05:23:52.281Z,12.00
2023-03-31T05:24:52.222Z,16.00
2023-03-31T05:26:13.191Z,20.00
2023-03-31T05:26:52.154Z,20.00
2023-03-31T05:28:13.146Z,24.00
2023-03-31T05:28:52.079Z,28.00
2023-03-31T05:29:52.071Z,32.00
2023-03-31T05:31:13.252Z,40.00
2023-03-31T05:31:52.028Z,40.00
2023-03-31T05:33:12.932Z,48.00
2023-03-31T05:33:51.942Z,48.00
2023-03-31T05:34:52.278Z,48.00
2023-03-31T05:36:12.940Z,44.00
2023-03-31T05:36:51.797Z,44.00
2023-03-31T05:38:12.769Z,44.00
2023-03-31T05:38:51.717Z,44.00
2023-03-31T05:39:51.698Z,40.00
2023-03-31T05:41:12.643Z,44.00
2023-03-31T05:41:51.659Z,40.00
2023-03-31T05:43:12.582Z,40.00
2023-03-31T05:43:51.551Z,40.00
2023-03-31T05:44:51.503Z,48.00
2023-03-31T05:46:12.529Z,52.00
2023-03-31T05:46:51.498Z,52.00
2023-03-31T05:48:12.473Z,52.00
2023-03-31T05:48:51.371Z,56.00
2023-03-31T05:49:51.356Z,56.00
2023-03-31T05:51:12.290Z,60.00
2023-03-31T05:51:51.283Z,64.00
2023-03-31T05:53:12.235Z,60.00
2023-03-31T05:53:51.212Z,56.00
2023-03-31T05:54:51.147Z,56.00
2023-03-31T05:56:12.192Z,64.00
2023-03-31T05:56:51.140Z,76.00
2023-03-31T05:58:12.067Z,88.00
2023-03-31T05:58:51.025Z,100.00
2023-03-31T05:59:51.004Z,104.00
2023-03-31T06:01:12.071Z,112.00
2023-03-31T06:01:51.044Z,116.00
2023-03-31T06:03:11.935Z,120.00
2023-03-31T06:03:50.940Z,120.00
2023-03-31T06:04:50.799Z,112.00
2023-03-31T06:06:11.780Z,108.00
2023-03-31T06:06:50.718Z,100.00
2023-03-31T06:08:11.708Z,96.00
2023-03-31T06:08:50.681Z,92.00
2023-03-31T06:09:50.656Z,96.00
2023-03-31T06:11:11.583Z,112.00
2023-03-31T06:11:50.654Z,132.00
2023-03-31T06:13:11.513Z,152.00
2023-03-31T06:13:50.510Z,172.00
2023-03-31T06:14:50.447Z,188.00
2023-03-31T06:16:11.507Z,208.00
2023-03-31T06:16:50.380Z,228.00
2023-03-31T06:18:11.389Z,240.00
2023-03-31T06:18:50.301Z,248.00
2023-03-31T06:19:50.292Z,256.00
2023-03-31T06:21:11.222Z,268.00
2023-03-31T06:21:50.216Z,288.00
2023-03-31T06:23:11.161Z,300.00
2023-03-31T06:23:50.156Z,316.00
2023-03-31T06:24:50.093Z,336.00
2023-03-31T06:26:11.060Z,356.00
2023-03-31T06:26:51.280Z,376.00
2023-03-31T06:28:10.987Z,396.00
2023-03-31T06:28:49.939Z,416.00
2023-03-31T06:29:49.905Z,436.00
2023-03-31T06:31:10.887Z,460.00
2023-03-31T06:31:49.900Z,484.00
2023-03-31T06:33:10.840Z,512.00
2023-03-31T06:33:49.788Z,556.00
2023-03-31T06:34:49.734Z,596.00
2023-03-31T06:36:10.738Z,636.00
2023-03-31T06:36:49.784Z,680.00
2023-03-31T06:38:10.853Z,724.00
2023-03-31T06:38:49.588Z,760.00
2023-03-31T06:39:49.545Z,780.00
2023-03-31T06:41:10.529Z,796.00
2023-03-31T06:41:49.522Z,808.00
2023-03-31T06:43:10.461Z,828.00
2023-03-31T06:43:49.462Z,848.00
2023-03-31T06:44:49.401Z,884.00
2023-03-31T06:46:10.523Z,924.00
2023-03-31T06:46:49.366Z,964.00
2023-03-31T06:48:10.257Z,1016.00
2023-03-31T06:48:49.253Z,1012.00
2023-03-31T06:49:49.606Z,924.00
2023-03-31T06:51:10.312Z,872.00
2023-03-31T06:51:49.121Z,820.00
2023-03-31T06:53:10.095Z,788.00
2023-03-31T06:53:49.072Z,764.00
2023-03-31T06:54:49.013Z,780.00
2023-03-31T06:56:09.985Z,816.00
2023-03-31T06:56:49.009Z,836.00
2023-03-31T06:58:10.007Z,808.00
2023-03-31T06:58:48.887Z,804.00
2023-03-31T06:59:50.226Z,800.00
2023-03-31T07:01:10.148Z,772.00
2023-03-31T07:01:49.050Z,760.00
2023-03-31T07:03:09.862Z,760.00
2023-03-31T07:03:48.744Z,748.00
2023-03-31T07:04:48.665Z,756.00
2023-03-31T07:06:09.655Z,760.00
2023-03-31T07:06:48.588Z,744.00
2023-03-31T07:08:09.579Z,788.00
2023-03-31T07:08:48.536Z,872.00
2023-03-31T07:09:48.511Z,960.00
2023-03-31T07:11:09.958Z,1108.00
2023-03-31T07:11:48.420Z,1184.00
2023-03-31T07:13:09.423Z,1164.00
2023-03-31T07:13:48.348Z,1200.00
2023-03-31T07:14:48.322Z,1252.00
2023-03-31T07:16:09.439Z,1292.00
2023-03-31T07:16:48.405Z,1284.00
2023-03-31T07:18:09.253Z,1276.00
2023-03-31T07:18:48.202Z,1248.00
2023-03-31T07:19:48.208Z,1228.00
2023-03-31T07:21:10.255Z,1224.00
2023-03-31T07:21:48.129Z,1200.00
2023-03-31T07:23:09.024Z,1200.00
2023-03-31T07:23:48.043Z,1176.00
2023-03-31T07:24:47.959Z,1212.00
2023-03-31T07:26:08.955Z,1244.00
2023-03-31T07:26:47.911Z,1240.00
2023-03-31T07:28:08.990Z,1228.00
2023-03-31T07:28:47.837Z,1248.00
2023-03-31T07:29:47.814Z,1252.00
2023-03-31T07:31:08.784Z,1256.00
2023-03-31T07:31:47.776Z,1276.00
2023-03-31T07:33:08.759Z,1284.00
2023-03-31T07:33:47.673Z,1336.00
2023-03-31T07:34:47.610Z,1376.00
2023-03-31T07:36:12.839Z,1424.00
2023-03-31T07:36:47.662Z,1468.00
2023-03-31T07:38:08.515Z,1512.00
2023-03-31T07:38:47.481Z,1536.00
2023-03-31T07:39:47.449Z,1564.00
2023-03-31T07:41:09.910Z,1596.00
2023-03-31T07:41:47.379Z,1616.00
2023-03-31T07:43:08.360Z,1636.00
2023-03-31T07:43:47.311Z,1640.00
2023-03-31T07:44:47.294Z,1632.00
2023-03-31T07:46:08.593Z,1600.00
2023-03-31T07:46:47.203Z,1552.00
2023-03-31T07:48:08.425Z,1504.00
2023-03-31T07:48:47.164Z,1432.00
2023-03-31T07:49:47.142Z,1348.00
2023-03-31T07:51:08.300Z,1220.00
2023-03-31T07:51:47.022Z,1140.00
2023-03-31T07:53:07.978Z,1080.00
2023-03-31T07:53:46.955Z,1104.00
2023-03-31T07:54:46.923Z,1132.00
2023-03-31T07:56:08.126Z,1112.00
2023-03-31T07:56:46.873Z,1104.00
2023-03-31T07:58:07.813Z,1120.00
2023-03-31T07:58:46.806Z,1120.00
2023-03-31T07:59:46.757Z,1112.00
2023-03-31T08:01:07.900Z,1052.00
2023-03-31T08:01:46.763Z,1028.00
2023-03-31T08:03:07.661Z,1104.00
2023-03-31T08:03:46.653Z,1176.00
2023-03-31T08:04:46.601Z,1216.00
2023-03-31T08:06:07.672Z,1264.00
2023-03-31T08:06:46.515Z,1308.00
2023-03-31T08:08:07.476Z,1372.00
2023-03-31T08:08:46.440Z,1452.00
2023-03-31T08:09:46.424Z,1504.00
2023-03-31T08:11:07.721Z,1532.00
2023-03-31T08:11:46.986Z,1564.00
2023-03-31T08:13:07.310Z,1600.00
2023-03-31T08:13:46.286Z,1624.00
2023-03-31T08:14:46.230Z,1636.00
2023-03-31T08:16:07.386Z,1652.00
2023-03-31T08:16:46.278Z,1708.00
2023-03-31T08:18:07.241Z,1756.00
2023-03-31T08:18:46.112Z,1816.00
2023-03-31T08:19:46.093Z,1844.00
2023-03-31T08:21:07.196Z,1860.00
2023-03-31T08:21:46.004Z,1872.00
2023-03-31T08:23:06.979Z,1868.00
2023-03-31T08:23:45.931Z,1852.00
2023-03-31T08:24:45.901Z,1852.00
2023-03-31T08:26:07.024Z,1832.00
2023-03-31T08:26:45.815Z,1800.00
2023-03-31T08:28:06.796Z,1776.00
2023-03-31T08:28:45.797Z,1744.00
2023-03-31T08:29:45.766Z,1712.00
2023-03-31T08:31:06.705Z,1680.00
2023-03-31T08:31:45.673Z,1656.00
2023-03-31T08:33:06.629Z,1616.00
2023-03-31T08:33:45.575Z,1576.00
2023-03-31T08:34:45.597Z,1544.00
2023-03-31T08:36:06.677Z,1520.00
2023-03-31T08:36:45.468Z,1500.00
2023-03-31T08:38:06.441Z,1500.00
2023-03-31T08:38:45.429Z,1512.00
2023-03-31T08:39:45.394Z,1532.00
2023-03-31T08:41:06.326Z,1580.00
2023-03-31T08:41:45.293Z,1644.00
2023-03-31T08:43:06.255Z,1676.00
2023-03-31T08:43:45.273Z,1716.00
2023-03-31T08:44:45.230Z,1744.00
2023-03-31T08:46:06.469Z,1736.00
2023-03-31T08:46:45.152Z,1760.00
2023-03-31T08:48:07.372Z,1852.00
2023-03-31T08:48:45.081Z,1972.00
2023-03-31T08:49:45.056Z,2128.00
2023-03-31T08:51:06.225Z,2268.00
2023-03-31T08:51:44.983Z,2408.00
2023-03-31T08:53:05.957Z,2452.00
2023-03-31T08:53:44.897Z,2388.00
2023-03-31T08:54:44.853Z,2484.00
2023-03-31T08:56:05.919Z,2492.00
2023-03-31T08:56:44.814Z,2500.00
2023-03-31T08:58:05.769Z,2500.00
2023-03-31T08:58:44.737Z,2484.00
2023-03-31T08:59:44.720Z,2504.00
2023-03-31T09:01:05.930Z,2524.00
2023-03-31T09:01:55.548Z,2564.00
2023-03-31T09:03:07.472Z,2472.00
2023-03-31T09:03:44.631Z,2484.00
2023-03-31T09:04:44.520Z,2568.00
2023-03-31T09:06:05.502Z,2536.00
2023-03-31T09:06:44.448Z,2460.00
2023-03-31T09:08:05.414Z,2448.00
2023-03-31T09:08:44.394Z,2408.00
2023-03-31T09:09:44.356Z,2600.00
2023-03-31T09:11:05.308Z,2652.00
2023-03-31T09:11:44.307Z,2508.00
2023-03-31T09:13:05.249Z,2292.00
2023-03-31T09:13:44.230Z,2144.00
2023-03-31T09:14:44.190Z,2244.00
2023-03-31T09:16:05.427Z,2156.00
2023-03-31T09:16:44.145Z,1988.00
2023-03-31T09:18:05.152Z,1848.00
2023-03-31T09:18:44.043Z,1912.00
2023-03-31T09:19:44.017Z,1972.00
2023-03-31T09:21:05.246Z,1888.00
2023-03-31T09:21:43.962Z,1860.00
2023-03-31T09:23:04.930Z,1804.00
2023-03-31T09:23:43.927Z,1780.00
2023-03-31T09:24:43.896Z,1900.00
2023-03-31T09:26:04.957Z,1932.00
2023-03-31T09:26:43.780Z,2048.00
2023-03-31T09:28:04.767Z,2352.00
2023-03-31T09:28:43.715Z,2552.00
2023-03-31T09:29:43.678Z,2652.00
2023-03-31T09:31:04.712Z,2736.00
2023-03-31T09:31:43.660Z,2784.00
2023-03-31T09:33:04.655Z,2808.00
2023-03-31T09:33:43.570Z,2816.00
2023-03-31T09:34:43.518Z,2852.00
2023-03-31T09:36:04.561Z,2872.00
2023-03-31T09:36:43.455Z,2920.00
2023-03-31T09:38:04.454Z,2936.00
2023-03-31T09:38:43.392Z,2908.00
2023-03-31T09:39:43.956Z,2900.00
2023-03-31T09:41:04.610Z,2908.00
2023-03-31T09:41:43.298Z,2920.00
2023-03-31T09:43:04.237Z,2916.00
2023-03-31T09:43:43.245Z,2916.00
2023-03-31T09:44:43.191Z,2868.00
2023-03-31T09:46:14.948Z,2816.00
2023-03-31T09:46:43.225Z,2804.00
2023-03-31T09:48:04.145Z,2760.00
2023-03-31T09:48:43.060Z,2680.00
2023-03-31T09:49:43.034Z,2632.00
2023-03-31T09:51:03.974Z,2564.00
2023-03-31T09:51:42.971Z,2492.00
2023-03-31T09:53:03.907Z,2504.00
2023-03-31T09:53:42.898Z,2440.00
2023-03-31T09:54:42.859Z,2404.00
2023-03-31T09:56:04.195Z,2528.00
2023-03-31T09:56:42.884Z,2612.00
2023-03-31T09:58:03.758Z,2708.00
2023-03-31T09:58:42.727Z,2760.00
2023-03-31T09:59:42.695Z,2740.00
2023-03-31T10:01:03.743Z,2632.00
2023-03-31T10:01:42.635Z,2528.00
2023-03-31T10:03:03.612Z,2536.00
2023-03-31T10:03:42.590Z,2616.00
2023-03-31T10:04:42.537Z,2588.00
2023-03-31T10:06:03.506Z,2480.00
2023-03-31T10:06:42.464Z,2340.00
2023-03-31T10:08:03.388Z,2280.00
2023-03-31T10:08:42.366Z,2332.00
2023-03-31T10:09:42.337Z,2424.00
2023-03-31T10:11:03.297Z,2460.00
2023-03-31T10:11:42.268Z,2652.00
2023-03-31T10:13:03.224Z,2840.00
2023-03-31T10:13:42.222Z,2772.00
2023-03-31T10:14:42.159Z,2608.00
2023-03-31T10:16:03.173Z,2428.00
2023-03-31T10:16:42.146Z,2648.00
2023-03-31T10:18:03.115Z,2676.00
2023-03-31T10:18:42.154Z,2620.00
2023-03-31T10:19:42.014Z,2904.00
2023-03-31T10:21:02.999Z,2984.00
2023-03-31T10:21:41.967Z,2896.00
2023-03-31T10:23:02.917Z,2832.00
2023-03-31T10:23:41.905Z,2892.00
2023-03-31T10:24:41.843Z,2828.00
2023-03-31T10:26:02.835Z,2568.00
2023-03-31T10:26:41.779Z,2508.00
2023-03-31T10:28:02.744Z,2380.00
2023-03-31T10:28:41.703Z,2124.00
2023-03-31T10:29:41.689Z,1932.00
2023-03-31T10:31:02.784Z,1936.00
2023-03-31T10:31:41.650Z,2148.00
2023-03-31T10:33:15.124Z,2136.00
2023-03-31T10:33:41.603Z,2072.00
2023-03-31T10:34:41.501Z,1832.00
2023-03-31T10:36:02.566Z,1860.00
2023-03-31T10:36:41.455Z,1924.00
2023-03-31T10:38:04.518Z,1824.00
2023-03-31T10:38:41.366Z,1880.00
2023-03-31T10:39:41.336Z,2016.00
2023-03-31T10:41:02.409Z,2044.00
2023-03-31T10:41:41.295Z,2080.00
2023-03-31T10:43:02.246Z,2028.00
2023-03-31T10:43:41.243Z,2060.00
2023-03-31T10:44:41.172Z,1968.00
2023-03-31T10:46:02.171Z,1948.00
2023-03-31T10:46:41.135Z,2296.00
2023-03-31T10:48:02.132Z,2496.00
2023-03-31T10:48:41.032Z,2532.00
2023-03-31T10:49:40.997Z,2500.00
2023-03-31T10:51:02.001Z,2440.00
2023-03-31T10:51:40.946Z,2332.00
2023-03-31T10:53:01.985Z,2036.00
2023-03-31T10:53:40.871Z,1972.00
2023-03-31T10:54:40.854Z,2548.00
2023-03-31T10:56:01.822Z,2888.00
2023-03-31T10:56:40.823Z,2804.00
2023-03-31T10:58:01.726Z,2596.00
2023-03-31T10:58:40.714Z,2600.00
2023-03-31T10:59:40.685Z,2664.00
2023-03-31T11:01:01.653Z,2720.00
2023-03-31T11:01:40.669Z,2772.00
2023-03-31T11:03:01.692Z,2792.00
2023-03-31T11:03:40.631Z,2776.00
2023-03-31T11:04:40.514Z,2696.00
2023-03-31T11:06:01.490Z,2608.00
2023-03-31T11:06:40.453Z,2680.00
2023-03-31T11:08:01.406Z,2792.00
2023-03-31T11:08:40.439Z,2880.00
2023-03-31T11:09:40.355Z,2916.00
2023-03-31T11:11:01.301Z,2912.00
2023-03-31T11:11:40.292Z,2920.00
2023-03-31T11:13:01.268Z,2952.00
2023-03-31T11:13:40.251Z,2984.00
2023-03-31T11:14:40.193Z,3012.00
2023-03-31T11:16:01.296Z,2976.00
2023-03-31T11:16:40.234Z,2992.00
2023-03-31T11:18:01.118Z,3008.00
2023-03-31T11:18:40.044Z,3028.00
2023-03-31T11:19:40.043Z,3064.00
2023-03-31T11:21:00.988Z,3068.00
2023-03-31T11:21:39.965Z,3056.00
2023-03-31T11:23:00.904Z,3076.00
2023-03-31T11:23:39.876Z,3156.00
2023-03-31T11:24:39.835Z,3244.00
2023-03-31T11:26:00.803Z,3244.00
2023-03-31T11:26:39.768Z,3208.00
2023-03-31T11:28:00.764Z,3268.00
2023-03-31T11:28:39.756Z,3116.00
2023-03-31T11:29:39.691Z,3008.00
2023-03-31T11:31:00.732Z,2872.00
2023-03-31T11:31:39.635Z,2332.00
2023-03-31T11:33:00.617Z,2092.00
2023-03-31T11:33:39.560Z,2000.00
2023-03-31T11:34:39.514Z,2044.00
2023-03-31T11:36:00.526Z,1956.00
2023-03-31T11:36:39.432Z,2048.00
2023-03-31T11:38:00.429Z,2260.00
2023-03-31T11:38:39.368Z,2016.00
2023-03-31T11:39:39.356Z,1728.00
2023-03-31T11:41:00.315Z,1396.00
2023-03-31T11:41:39.278Z,1348.00
2023-03-31T11:43:00.260Z,1576.00
2023-03-31T11:43:39.206Z,1660.00
2023-03-31T11:44:39.177Z,1664.00
2023-03-31T11:46:00.213Z,1568.00
2023-03-31T11:46:39.174Z,1360.00
2023-03-31T11:48:00.126Z,1284.00
2023-03-31T11:48:39.053Z,1060.00
2023-03-31T11:49:39.182Z,1188.00
2023-03-31T11:50:59.969Z,1448.00
2023-03-31T11:51:38.952Z,1716.00
2023-03-31T11:52:59.914Z,2060.00
2023-03-31T11:53:38.901Z,2440.00
2023-03-31T11:54:38.839Z,2956.00
2023-03-31T11:55:59.829Z,3420.00
2023-03-31T11:56:38.778Z,3748.00
2023-03-31T11:57:59.772Z,3272.00
2023-03-31T11:58:38.729Z,2932.00
2023-03-31T11:59:38.720Z,2748.00
2023-03-31T12:01:01.234Z,2884.00
2023-03-31T12:01:38.623Z,3704.00
2023-03-31T12:02:59.688Z,3316.00
2023-03-31T12:03:38.593Z,3160.00
2023-03-31T12:04:38.521Z,3056.00
2023-03-31T12:05:59.542Z,3476.00
2023-03-31T12:06:38.448Z,3588.00
2023-03-31T12:07:59.544Z,3316.00
2023-03-31T12:08:38.384Z,3320.00
2023-03-31T12:09:38.348Z,3704.00
2023-03-31T12:10:59.317Z,3880.00
2023-03-31T12:11:38.331Z,3804.00
2023-03-31T12:13:01.253Z,4280.00
2023-03-31T12:13:38.238Z,4412.00
2023-03-31T12:14:38.197Z,3988.00
2023-03-31T12:15:59.193Z,3696.00
2023-03-31T12:16:38.282Z,3708.00
2023-03-31T12:17:59.127Z,3876.00
2023-03-31T12:18:38.064Z,3680.00
2023-03-31T12:19:38.051Z,3156.00
2023-03-31T12:20:59.051Z,3032.00
2023-03-31T12:21:37.976Z,3328.00
2023-03-31T12:22:58.968Z,3584.00
2023-03-31T12:23:37.940Z,3556.00
2023-03-31T12:24:37.855Z,4796.00
2023-03-31T12:25:58.823Z,3540.00
2023-03-31T12:26:37.785Z,3756.00
2023-03-31T12:27:58.775Z,4956.00
2023-03-31T12:28:37.726Z,3796.00
2023-03-31T12:29:37.696Z,3836.00
2023-03-31T12:30:58.721Z,4276.00
2023-03-31T12:31:37.752Z,3524.00
2023-03-31T12:32:58.631Z,3480.00
2023-03-31T12:33:37.577Z,3208.00
2023-03-31T12:34:37.576Z,2956.00
2023-03-31T12:35:58.580Z,2576.00
2023-03-31T12:36:37.469Z,2372.00
2023-03-31T12:37:58.441Z,2140.00
2023-03-31T12:38:37.415Z,1956.00